Time;durP1;ratioP1;P1;durP2;ratioP2;P2;SDS_P1;SDS_P2;PMS_P1;PMS_P2;Temp;Humidity;BMP_temperature;BMP_pressure;BME280_temperature;BME280_humidity;BME280_pressure;Samples;Min_cycle;Max_cycle;Signal;HPM_P1;HPM_P2
2022/02/22 00:00:10;;;;;;;9.75;8.40;;;;;;;2.65;91.13;97469.38;5062321;28;20037;-63
2022/02/22 00:02:35;;;;;;;;;;;;;;;2.84;90.75;97503.00;5063009;28;20056;-62
2022/02/22 00:05:01;;;;;;;11.18;8.23;;;;;;;2.87;90.78;97500.34;5061367;28;19912;-60
2022/02/22 00:07:28;;;;;;;9.05;8.10;;;;;;;2.92;91.15;97501.06;5059692;28;20025;-60
2022/02/22 00:09:55;;;;;;;8.45;7.18;;;;;;;2.84;91.22;97505.56;5061166;28;20036;-59
2022/02/22 00:12:22;;;;;;;8.15;7.07;;;;;;;3.02;91.09;97510.19;5062135;28;20029;-60
2022/02/22 00:14:48;;;;;;;7.90;7.00;;;;;;;2.86;90.54;97494.38;5061407;28;20348;-60
2022/02/22 00:17:13;;;;;;;7.70;6.90;;;;;;;3.00;90.35;97493.19;5062147;28;20063;-60
2022/02/22 00:19:39;;;;;;;7.95;7.18;;;;;;;3.06;90.13;97498.13;5060870;28;20029;-61
2022/02/22 00:22:05;;;;;;;7.85;6.70;;;;;;;2.97;90.78;97500.97;5062110;28;20092;-59
2022/02/22 00:24:31;;;;;;;8.50;6.75;;;;;;;3.00;90.66;97500.88;5061405;28;20029;-61
2022/02/22 00:26:56;;;;;;;8.18;6.82;;;;;;;2.89;91.12;97485.81;5062456;28;20119;-60
2022/02/22 00:29:22;;;;;;;7.18;6.50;;;;;;;2.86;91.03;97489.28;5063035;28;20029;-60
2022/02/22 00:31:47;;;;;;;7.15;6.10;;;;;;;3.01;90.95;97494.88;5062142;28;20037;-61
2022/02/22 00:34:13;;;;;;;7.85;7.05;;;;;;;2.98;90.48;97487.28;5062082;28;20017;-60
2022/02/22 00:36:38;;;;;;;8.98;6.82;;;;;;;3.07;90.04;97481.94;5061886;28;20092;-60
2022/02/22 00:39:05;;;;;;;9.90;6.65;;;;;;;2.70;90.29;97434.34;5062059;28;20023;-60
2022/02/22 00:41:31;;;;;;;6.78;6.07;;;;;;;3.03;89.98;97477.78;5061695;28;20033;-61
2022/02/22 00:43:57;;;;;;;7.03;6.03;;;;;;;3.19;90.63;97483.31;5062004;28;20092;-60
2022/02/22 00:46:23;;;;;;;6.88;6.18;;;;;;;3.10;89.67;97469.06;5061765;28;20028;-59
2022/02/22 00:48:48;;;;;;;6.35;5.75;;;;;;;3.18;89.85;97466.28;5062176;28;20119;-60
2022/02/22 00:51:15;;;;;;;6.50;5.55;;;;;;;3.04;90.33;97475.19;5061835;28;20021;-58
2022/02/22 00:53:40;;;;;;;6.28;5.65;;;;;;;3.05;90.52;97469.19;5061743;28;20341;-61
2022/02/22 00:56:06;;;;;;;6.05;5.55;;;;;;;3.00;90.33;97471.03;5062018;28;20029;-60
2022/02/22 00:58:31;;;;;;;6.45;5.85;;;;;;;2.98;90.41;97470.25;5061795;28;20313;-60
2022/02/22 01:00:57;;;;;;;6.20;5.60;;;;;;;3.07;90.21;97467.41;5061730;28;20187;-60
2022/02/22 01:03:23;;;;;;;7.40;5.28;;;;;;;3.02;90.34;97458.19;5061549;28;20337;-61
2022/02/22 01:05:48;;;;;;;7.03;5.10;;;;;;;3.11;90.24;97474.13;5061515;28;20025;-60
2022/02/22 01:08:15;;;;;;;5.35;4.85;;;;;;;3.03;89.84;97465.00;5061606;28;20024;-60
2022/02/22 01:10:41;;;;;;;5.72;5.13;;;;;;;3.07;90.45;97464.03;5061683;28;20035;-61
2022/02/22 01:13:07;;;;;;;5.20;4.70;;;;;;;3.09;90.17;97462.25;5061680;28;20013;-60
2022/02/22 01:15:32;;;;;;;7.35;5.00;;;;;;;3.23;90.12;97467.81;5061714;28;20035;-60
2022/02/22 01:17:58;;;;;;;5.40;4.90;;;;;;;3.24;89.39;97463.56;5061711;28;20071;-60
2022/02/22 01:20:23;;;;;;;5.47;4.85;;;;;;;3.19;88.99;97443.25;5061601;28;20321;-60
2022/02/22 01:22:52;;;;;;;5.88;5.30;;;;;;;3.24;89.80;97451.59;5061453;28;20031;-60
2022/02/22 01:25:19;;;;;;;5.43;4.93;;;;;;;3.23;89.86;97447.38;5060979;28;20083;-60
2022/02/22 01:27:44;;;;;;;6.53;5.18;;;;;;;3.19;89.35;97445.81;5059965;28;20221;-61
2022/02/22 01:30:10;;;;;;;5.43;4.93;;;;;;;3.34;89.72;97447.06;5061575;28;20021;-61
2022/02/22 01:32:36;;;;;;;5.10;4.65;;;;;;;3.34;89.50;97446.25;5061328;28;20051;-60
2022/02/22 01:35:03;;;;;;;5.40;4.82;;;;;;;3.31;88.93;97448.88;5061714;28;20033;-62
2022/02/22 01:37:29;;;;;;;5.00;4.60;;;;;;;3.17;89.11;97441.59;5065231;28;20020;-61
2022/02/22 01:39:54;;;;;;;4.72;4.22;;;;;;;3.21;89.27;97463.66;5065086;28;20086;-61
2022/02/22 01:42:20;;;;;;;4.50;4.10;;;;;;;3.32;89.40;97455.66;5064881;28;20048;-61
2022/02/22 01:44:47;;;;;;;6.75;5.00;;;;;;;3.26;88.94;97457.53;5065225;28;20036;-61
2022/02/22 01:47:16;;;;;;;4.50;4.10;;;;;;;3.25;89.06;97449.88;5064861;28;20086;-61
2022/02/22 01:49:43;;;;;;;4.90;4.40;;;;;;;3.25;89.69;97453.28;5064838;28;20052;-59
2022/02/22 01:52:08;;;;;;;4.80;4.07;;;;;;;3.23;89.36;97449.91;5064662;28;20017;-60
2022/02/22 01:54:35;;;;;;;5.18;4.68;;;;;;;3.19;89.31;97442.38;5064633;28;20044;-61
2022/02/22 01:57:00;;;;;;;4.00;3.70;;;;;;;3.21;89.25;97436.34;5064952;28;20020;-61
2022/02/22 01:59:26;;;;;;;4.70;4.20;;;;;;;3.27;89.22;97448.13;5064578;28;20191;-61
2022/02/22 02:01:52;;;;;;;4.30;4.00;;;;;;;3.23;89.48;97446.53;5064774;28;20032;-60
2022/02/22 02:04:18;;;;;;;4.57;4.00;;;;;;;3.27;89.99;97437.91;5064791;28;20106;-61
2022/02/22 02:06:43;;;;;;;4.93;4.40;;;;;;;3.31;89.30;97433.50;5047097;28;20319;-60
2022/02/22 02:09:10;;;;;;;4.72;4.20;;;;;;;3.06;90.18;97427.38;5048328;28;20043;-61
2022/02/22 02:11:46;;;;;;;4.15;3.80;;;;;;;3.16;90.14;97429.69;5064369;28;20032;-60
2022/02/22 02:14:13;;;;;;;4.30;3.90;;;;;;;3.15;89.72;97433.97;5064388;28;20322;-61
2022/02/22 02:16:39;;;;;;;4.65;4.25;;;;;;;3.15;90.09;97423.75;5064419;28;20040;-60
2022/02/22 02:19:05;;;;;;;4.28;3.88;;;;;;;3.14;90.15;97421.25;5059079;28;20214;-61
2022/02/22 02:21:31;;;;;;;5.10;4.60;;;;;;;3.22;90.07;97422.69;5060344;28;20373;-61
2022/02/22 02:24:09;;;;;;;4.50;4.10;;;;;;;2.93;89.80;97357.03;5063027;28;20041;-61
2022/02/22 02:26:35;;;;;;;5.20;4.70;;;;;;;3.19;89.80;97409.13;5061856;28;20056;-60
2022/02/22 02:29:01;;;;;;;4.55;4.15;;;;;;;3.20;89.89;97421.88;5063139;28;20059;-62
2022/02/22 02:31:26;;;;;;;4.30;3.75;;;;;;;3.31;90.37;97423.28;5062898;28;20025;-61
2022/02/22 02:33:52;;;;;;;4.97;4.43;;;;;;;3.13;90.04;97415.28;5062813;28;20024;-61
2022/02/22 02:36:17;;;;;;;4.15;3.80;;;;;;;3.16;89.92;97422.84;5064097;28;20031;-61
2022/02/22 02:38:43;;;;;;;5.00;4.20;;;;;;;3.19;89.84;97419.38;5063263;28;20028;-61
2022/02/22 02:41:08;;;;;;;4.47;4.07;;;;;;;3.24;90.15;97414.97;5063628;28;20031;-61
2022/02/22 02:43:34;;;;;;;4.38;3.97;;;;;;;3.26;89.79;97418.31;5063665;28;20025;-60
2022/02/22 02:45:59;;;;;;;4.57;4.18;;;;;;;3.22;90.28;97420.13;5063898;28;20344;-59
2022/02/22 02:48:25;;;;;;;4.63;4.22;;;;;;;3.25;89.66;97414.94;5062958;28;20314;-59
2022/02/22 02:50:51;;;;;;;4.25;3.85;;;;;;;3.17;89.99;97416.84;5062323;28;20037;-59
2022/02/22 02:53:16;;;;;;;5.10;4.00;;;;;;;3.27;90.00;97415.69;5063629;28;20337;-59
2022/02/22 02:55:42;;;;;;;4.40;4.00;;;;;;;3.28;89.55;97416.56;5063521;28;20017;-59
2022/02/22 02:58:07;;;;;;;4.28;3.85;;;;;;;3.27;89.83;97415.69;5063861;28;20025;-59
2022/02/22 03:00:33;;;;;;;4.18;3.80;;;;;;;3.37;89.36;97426.50;5063691;28;20032;-59
2022/02/22 03:02:58;;;;;;;5.55;4.00;;;;;;;3.22;90.05;97404.78;5063492;28;20367;-59
2022/02/22 03:05:24;;;;;;;6.40;3.92;;;;;;;3.25;89.55;97411.50;5063268;28;20036;-59
2022/02/22 03:07:53;;;;;;;5.22;3.92;;;;;;;3.21;90.29;97408.22;5058195;28;20346;-59
2022/02/22 03:10:18;;;;;;;4.55;3.45;;;;;;;3.27;90.29;97415.69;5058092;28;20329;-59
2022/02/22 03:12:44;;;;;;;4.10;3.70;;;;;;;3.25;89.75;97404.69;5062162;28;20026;-59
2022/02/22 03:15:10;;;;;;;5.22;3.95;;;;;;;3.22;90.11;97409.91;5063369;28;20314;-59
2022/02/22 03:17:36;;;;;;;4.15;3.85;;;;;;;3.25;90.30;97407.25;5063125;28;20036;-59
2022/02/22 03:20:03;;;;;;;4.95;3.85;;;;;;;3.27;89.96;97413.16;5063014;28;20342;-59
2022/02/22 03:22:29;;;;;;;4.82;4.32;;;;;;;3.26;90.15;97410.63;5063004;28;20327;-59
2022/02/22 03:24:55;;;;;;;4.30;3.90;;;;;;;3.25;89.91;97411.50;5063316;28;20032;-59
2022/02/22 03:27:20;;;;;;;5.05;4.18;;;;;;;3.33;90.16;97417.25;5062139;28;20027;-59
2022/02/22 03:29:46;;;;;;;4.90;3.72;;;;;;;3.23;89.87;97398.78;5062644;28;20029;-59
2022/02/22 03:32:11;;;;;;;5.25;4.75;;;;;;;3.23;90.23;97405.63;5062922;28;20043;-59
2022/02/22 03:34:37;;;;;;;4.80;4.35;;;;;;;3.29;90.49;97405.44;5062773;28;20025;-59
2022/02/22 03:37:02;;;;;;;4.78;4.22;;;;;;;3.26;89.96;97397.84;5062793;28;20048;-60
2022/02/22 03:39:28;;;;;;;4.38;3.97;;;;;;;3.23;90.39;97397.94;5062270;28;20031;-59
2022/02/22 03:41:53;;;;;;;4.97;4.47;;;;;;;3.24;90.51;97392.78;5062685;28;20051;-59
2022/02/22 03:44:19;;;;;;;4.50;4.10;;;;;;;3.34;90.44;97384.84;5062696;28;20349;-60
2022/02/22 03:46:44;;;;;;;4.53;4.10;;;;;;;3.25;90.67;97384.22;5062731;28;20332;-60
2022/02/22 03:49:10;;;;;;;4.47;4.05;;;;;;;3.25;91.06;97385.94;5062756;28;20059;-59
2022/02/22 03:51:36;;;;;;;4.40;4.00;;;;;;;3.38;90.81;97376.22;5062545;28;20060;-60
2022/02/22 03:54:01;;;;;;;4.50;4.10;;;;;;;3.34;90.79;97383.13;5062325;28;20025;-59
2022/02/22 03:56:27;;;;;;;4.72;4.32;;;;;;;3.40;90.55;97376.97;5062440;28;20032;-59
2022/02/22 03:58:52;;;;;;;5.30;4.80;;;;;;;3.36;91.33;97365.16;5061352;28;20049;-60
2022/02/22 04:01:18;;;;;;;5.57;4.80;;;;;;;3.28;90.83;97384.13;5062088;28;20025;-60
2022/02/22 04:03:44;;;;;;;5.90;4.97;;;;;;;3.28;91.42;97389.25;5059794;28;20074;-60
2022/02/22 04:06:09;;;;;;;6.65;5.57;;;;;;;3.33;92.04;97386.56;5062070;28;20080;-59
2022/02/22 04:08:35;;;;;;;7.15;5.35;;;;;;;3.32;91.41;97387.47;5056092;28;20028;-59
2022/02/22 04:11:00;;;;;;;8.30;6.00;;;;;;;3.32;91.78;97394.28;5062389;28;20331;-59
2022/02/22 04:13:26;;;;;;;6.13;5.53;;;;;;;3.24;92.08;97386.84;5062350;28;20039;-60
2022/02/22 04:15:51;;;;;;;7.82;6.15;;;;;;;3.31;92.47;97396.00;5062301;28;20017;-59
2022/02/22 04:18:17;;;;;;;6.70;5.43;;;;;;;3.40;92.61;97394.88;5061986;28;20274;-58
2022/02/22 04:20:43;;;;;;;6.53;5.65;;;;;;;3.40;92.32;97398.28;5062056;28;20333;-59
2022/02/22 04:23:08;;;;;;;7.40;6.30;;;;;;;3.35;92.46;97405.25;5061820;28;20371;-58
2022/02/22 04:25:34;;;;;;;10.10;7.03;;;;;;;3.33;92.25;97403.63;5061826;28;20056;-58
2022/02/22 04:28:00;;;;;;;10.88;6.82;;;;;;;3.40;92.31;97400.00;5062044;28;20187;-59
2022/02/22 04:30:25;;;;;;;9.20;6.97;;;;;;;3.49;92.28;97394.59;5061729;28;20024;-58
2022/02/22 04:32:51;;;;;;;10.07;6.68;;;;;;;3.52;92.10;97402.22;5061781;28;20025;-60
2022/02/22 04:35:16;;;;;;;8.15;6.95;;;;;;;3.48;92.70;97405.75;5061646;28;20033;-60
2022/02/22 04:37:42;;;;;;;8.15;6.72;;;;;;;3.45;92.39;97401.53;5061679;28;20272;-58
2022/02/22 04:40:08;;;;;;;10.18;6.78;;;;;;;3.60;92.23;97400.22;5061712;28;20029;-60
2022/02/22 04:42:33;;;;;;;8.00;6.30;;;;;;;3.63;91.80;97400.16;5061648;28;20032;-58
2022/02/22 04:44:59;;;;;;;8.15;6.30;;;;;;;3.56;92.36;97401.22;5061696;28;20047;-59
2022/02/22 04:47:24;;;;;;;8.82;6.88;;;;;;;3.65;92.01;97404.38;5061693;28;20033;-59
2022/02/22 04:49:50;;;;;;;9.50;7.25;;;;;;;3.73;92.06;97404.97;5061656;28;20032;-59
2022/02/22 04:52:15;;;;;;;8.38;6.47;;;;;;;3.74;91.77;97407.50;5061734;28;20025;-59
2022/02/22 04:54:41;;;;;;;9.15;7.70;;;;;;;3.79;90.96;97409.91;5061194;28;20218;-60
2022/02/22 04:57:07;;;;;;;9.32;6.57;;;;;;;3.73;91.65;97404.97;5061675;28;20021;-59
2022/02/22 04:59:33;;;;;;;9.18;6.78;;;;;;;3.55;91.53;97399.56;5061666;28;20032;-59
2022/02/22 05:01:59;;;;;;;9.77;6.50;;;;;;;3.74;91.48;97415.16;5061469;28;20144;-58
2022/02/22 05:04:24;;;;;;;10.02;6.85;;;;;;;3.61;92.03;97414.72;5061657;28;20045;-58
2022/02/22 05:06:50;;;;;;;8.80;6.38;;;;;;;3.61;92.64;97416.44;5061125;28;20028;-59
2022/02/22 05:09:15;;;;;;;8.43;5.78;;;;;;;3.53;92.39;97406.41;5058823;28;20039;-59
2022/02/22 05:11:41;;;;;;;7.70;5.20;;;;;;;3.57;91.42;97415.69;5064072;28;20040;-59
2022/02/22 05:14:07;;;;;;;5.40;4.75;;;;;;;3.55;91.41;97412.34;5065431;28;20040;-59
2022/02/22 05:16:35;;;;;;;6.03;4.90;;;;;;;3.72;91.21;97424.63;5065379;28;20040;-59
2022/02/22 05:19:01;;;;;;;7.22;5.40;;;;;;;3.71;91.23;97422.13;5065032;28;20021;-59
2022/02/22 05:21:27;;;;;;;7.03;5.43;;;;;;;3.66;91.32;97422.25;5064064;28;20032;-59
2022/02/22 05:23:52;;;;;;;6.28;5.07;;;;;;;3.72;91.13;97428.91;5065356;28;20040;-58
2022/02/22 05:26:18;;;;;;;5.68;5.07;;;;;;;3.61;91.89;97403.66;5065537;28;20098;-58
2022/02/22 05:28:46;;;;;;;6.43;5.25;;;;;;;3.56;92.24;97436.19;5065186;28;20052;-59
2022/02/22 05:31:17;;;;;;;5.32;4.45;;;;;;;3.31;91.78;97380.66;5064612;28;20016;-59
2022/02/22 05:33:43;;;;;;;6.10;4.60;;;;;;;3.73;91.68;97433.13;5065006;28;20020;-59
2022/02/22 05:36:10;;;;;;;5.72;4.18;;;;;;;3.68;91.13;97424.75;5064027;28;20028;-61
2022/02/22 05:38:35;;;;;;;5.55;4.25;;;;;;;3.75;91.35;97441.63;5065055;28;20037;-59
2022/02/22 05:41:01;;;;;;;4.32;3.72;;;;;;;3.65;90.90;97448.75;5064947;28;20048;-59
2022/02/22 05:43:26;;;;;;;5.20;3.60;;;;;;;3.74;90.84;97442.50;5063221;28;20017;-59
2022/02/22 05:45:52;;;;;;;4.32;3.80;;;;;;;3.78;90.68;97454.31;5064585;28;20123;-59
2022/02/22 05:48:18;;;;;;;4.18;3.55;;;;;;;3.77;91.16;97452.63;5064344;28;20214;-59
2022/02/22 05:50:44;;;;;;;4.70;3.75;;;;;;;3.80;90.56;97463.63;5064792;28;20083;-59
2022/02/22 05:53:10;;;;;;;4.18;3.22;;;;;;;3.88;90.31;97455.72;5064947;28;20039;-59
2022/02/22 05:55:37;;;;;;;4.50;3.70;;;;;;;3.85;90.17;97458.38;5064617;28;20025;-59
2022/02/22 05:58:03;;;;;;;5.57;4.07;;;;;;;3.84;90.04;97460.97;5064532;28;20024;-59
2022/02/22 06:00:29;;;;;;;8.50;5.70;;;;;;;3.84;90.51;97469.50;5063929;28;20328;-59
2022/02/22 06:02:54;;;;;;;4.38;3.63;;;;;;;3.90;90.18;97466.72;5064397;28;20029;-60
2022/02/22 06:05:20;;;;;;;6.30;3.85;;;;;;;3.91;89.63;97477.84;5064376;28;20036;-60
2022/02/22 06:07:45;;;;;;;4.03;3.33;;;;;;;3.94;90.55;97482.84;5063239;28;20264;-59
2022/02/22 06:10:14;;;;;;;4.90;3.50;;;;;;;3.43;90.19;97405.03;5063907;28;20020;-60
2022/02/22 06:12:40;;;;;;;4.00;3.60;;;;;;;3.97;89.90;97485.31;5064290;28;20025;-59
2022/02/22 06:15:06;;;;;;;5.00;3.65;;;;;;;3.96;89.99;97487.03;5064440;28;20021;-59
2022/02/22 06:17:44;;;;;;;4.25;3.30;;;;;;;3.85;89.94;97471.19;5063872;28;20052;-59
2022/02/22 06:20:11;;;;;;;5.28;3.45;;;;;;;3.85;90.23;97495.91;5063555;28;20025;-59
2022/02/22 06:22:37;;;;;;;4.18;3.22;;;;;;;3.94;90.19;97501.59;5063069;28;20025;-60
2022/02/22 06:25:08;;;;;;;5.93;2.53;;;;;;;3.86;90.19;97508.66;5064425;28;20277;-59
2022/02/22 06:27:48;;;;;;;2.95;2.15;;;;;;;3.71;89.23;97496.34;5054587;28;20021;-60
2022/02/22 06:30:14;;;;;;;5.97;2.78;;;;;;;3.63;89.24;97515.31;5059690;28;20036;-59
2022/02/22 06:32:39;;;;;;;2.00;1.80;;;;;;;3.70;89.18;97510.84;5062747;28;20036;-58
2022/02/22 06:35:05;;;;;;;2.30;2.10;;;;;;;3.68;89.56;97515.19;5064224;28;20318;-58
2022/02/22 06:37:31;;;;;;;2.28;2.00;;;;;;;3.57;89.56;97518.03;5063709;28;20262;-59
2022/02/22 06:39:58;;;;;;;2.25;2.05;;;;;;;3.69;88.96;97522.00;5063686;28;20028;-60
2022/02/22 06:42:24;;;;;;;2.47;2.00;;;;;;;3.55;88.80;97524.09;5063839;28;20039;-59
2022/02/22 06:44:49;;;;;;;6.43;3.13;;;;;;;3.52;89.29;97535.28;5063876;28;20376;-58
2022/02/22 06:47:15;;;;;;;2.80;2.30;;;;;;;3.58;89.67;97537.66;5063518;28;20072;-59
2022/02/22 06:49:40;;;;;;;2.45;2.25;;;;;;;3.45;89.33;97546.56;5062166;28;20338;-58
2022/02/22 06:52:06;;;;;;;4.85;2.30;;;;;;;3.50;89.81;97559.22;5062105;28;20021;-59
2022/02/22 06:54:32;;;;;;;3.22;2.10;;;;;;;3.57;89.74;97548.75;5061317;28;20025;-59
2022/02/22 06:56:57;;;;;;;2.50;1.92;;;;;;;3.33;89.72;97527.25;5061660;28;20029;-59
2022/02/22 06:59:23;;;;;;;2.58;1.90;;;;;;;3.29;89.53;97561.47;5061349;28;20025;-59
2022/02/22 07:01:48;;;;;;;2.67;2.10;;;;;;;3.42;89.68;97567.94;5061640;28;20036;-58
2022/02/22 07:04:14;;;;;;;4.47;2.05;;;;;;;3.28;89.22;97512.03;5062823;28;20041;-59
2022/02/22 07:06:40;;;;;;;2.92;2.05;;;;;;;3.48;88.39;97569.50;5062560;28;20119;-59
2022/02/22 07:09:06;;;;;;;3.47;1.92;;;;;;;3.56;87.99;97553.91;5059075;28;20039;-59
2022/02/22 07:11:32;;;;;;;2.78;2.08;;;;;;;3.57;88.44;97559.00;5062301;28;20082;-57
2022/02/22 07:13:58;;;;;;;2.03;1.83;;;;;;;3.61;88.32;97559.75;5062423;28;20024;-60
2022/02/22 07:16:24;;;;;;;3.33;1.75;;;;;;;3.65;87.63;97560.50;5062019;28;20108;-58
2022/02/22 07:18:49;;;;;;;3.00;1.60;;;;;;;3.61;87.73;97552.09;5062479;28;20056;-58
2022/02/22 07:21:16;;;;;;;6.07;2.75;;;;;;;3.75;87.52;97564.50;5062427;28;20073;-58
2022/02/22 07:23:41;;;;;;;2.78;1.80;;;;;;;3.92;86.87;97572.53;5062566;28;20029;-59
2022/02/22 07:26:07;;;;;;;2.35;1.63;;;;;;;3.89;86.56;97574.31;5062559;28;20035;-59
2022/02/22 07:28:32;;;;;;;3.03;1.60;;;;;;;3.93;86.50;97576.75;5062177;28;20031;-59
2022/02/22 07:30:58;;;;;;;2.25;1.60;;;;;;;3.91;85.76;97578.50;5060686;28;20055;-59
2022/02/22 07:33:23;;;;;;;4.13;2.00;;;;;;;3.89;86.48;97579.44;5062226;28;20025;-59
2022/02/22 07:35:49;;;;;;;2.40;1.60;;;;;;;3.98;85.80;97586.88;5062305;28;20209;-59
2022/02/22 07:38:15;;;;;;;3.55;1.75;;;;;;;3.99;86.54;97578.31;5061939;28;20088;-58
2022/02/22 07:40:41;;;;;;;2.00;1.60;;;;;;;4.11;85.75;97582.22;5060977;28;20094;-59
2022/02/22 07:43:07;;;;;;;5.47;3.30;;;;;;;4.16;85.66;97585.47;5062334;28;20032;-58
2022/02/22 07:45:32;;;;;;;2.75;1.95;;;;;;;4.37;85.35;97586.56;5061036;28;20253;-58
2022/02/22 07:48:00;;;;;;;1.55;1.45;;;;;;;4.71;84.27;97580.38;5061252;28;20029;-56
2022/02/22 07:50:26;;;;;;;2.85;1.85;;;;;;;5.12;81.15;97575.63;5062409;28;20207;-57
2022/02/22 07:52:52;;;;;;;5.22;1.70;;;;;;;5.85;78.22;97560.25;5060047;28;20082;-57
2022/02/22 07:55:17;;;;;;;2.55;1.70;;;;;;;6.08;75.58;97558.56;5059417;28;20376;-58
2022/02/22 07:57:44;;;;;;;2.25;1.38;;;;;;;6.63;75.09;97576.19;5061926;28;20222;-58
2022/02/22 08:00:10;;;;;;;2.80;1.60;;;;;;;6.58;74.41;97589.19;5062042;28;20055;-57
2022/02/22 08:02:36;;;;;;;3.60;1.73;;;;;;;6.67;75.03;97580.28;5059192;28;20052;-58
2022/02/22 08:05:03;;;;;;;1.85;1.50;;;;;;;6.84;73.48;97588.16;5061119;28;20052;-57
2022/02/22 08:07:29;;;;;;;3.60;2.00;;;;;;;6.60;74.94;97592.56;5060287;28;20021;-57
2022/02/22 08:09:54;;;;;;;4.18;2.50;;;;;;;6.39;75.00;97599.38;5059816;28;20063;-58
2022/02/22 08:12:20;;;;;;;2.50;1.90;;;;;;;6.21;75.22;97598.31;5061733;28;20021;-58
2022/02/22 08:14:45;;;;;;;2.92;1.95;;;;;;;6.27;73.62;97600.69;5061795;28;20164;-58
2022/02/22 08:17:11;;;;;;;5.70;2.10;;;;;;;5.96;73.70;97612.06;5061673;28;20209;-58
2022/02/22 08:19:36;;;;;;;3.60;1.75;;;;;;;5.82;74.78;97609.97;5061604;28;20179;-57
2022/02/22 08:22:03;;;;;;;3.50;1.67;;;;;;;5.23;75.64;97613.75;5061945;28;20178;-58
2022/02/22 08:24:28;;;;;;;3.63;1.80;;;;;;;5.23;76.27;97618.88;5061754;28;20028;-59
2022/02/22 08:26:57;;;;;;;2.45;1.50;;;;;;;4.94;76.76;97566.78;5061513;28;20021;-58
2022/02/22 08:29:24;;;;;;;4.57;2.00;;;;;;;5.26;77.03;97633.31;5061307;28;20142;-58
2022/02/22 08:31:50;;;;;;;2.50;2.03;;;;;;;5.29;76.93;97641.78;5061563;28;20032;-57
2022/02/22 08:34:16;;;;;;;3.70;2.22;;;;;;;4.86;77.24;97645.72;5058827;28;20013;-58
2022/02/22 08:36:43;;;;;;;4.15;2.15;;;;;;;4.89;78.26;97650.75;5060190;28;20025;-58
2022/02/22 08:39:08;;;;;;;3.72;2.10;;;;;;;5.01;78.41;97652.91;5061515;28;20025;-58
2022/02/22 08:41:34;;;;;;;4.45;2.67;;;;;;;5.07;77.82;97657.00;5060908;28;20033;-58
2022/02/22 08:44:04;;;;;;;5.10;2.38;;;;;;;5.20;77.88;97660.00;5060244;28;20272;-59
2022/02/22 08:46:29;;;;;;;2.95;2.10;;;;;;;5.60;77.26;97633.03;5063794;28;20047;-58
2022/02/22 08:48:55;;;;;;;4.10;1.83;;;;;;;5.59;76.60;97633.91;5065290;28;20020;-58
2022/02/22 08:51:21;;;;;;;4.40;2.25;;;;;;;5.24;76.06;97635.94;5065290;28;20060;-59
2022/02/22 08:53:46;;;;;;;3.75;2.30;;;;;;;5.23;75.75;97653.94;5063758;28;20056;-59
2022/02/22 08:56:13;;;;;;;3.40;2.00;;;;;;;5.22;76.42;97640.28;5065155;28;20029;-58
2022/02/22 08:58:38;;;;;;;2.42;1.80;;;;;;;5.75;77.54;97626.50;5065132;28;20052;-58
2022/02/22 09:01:04;;;;;;;2.85;1.90;;;;;;;5.95;75.46;97625.78;5065108;28;20105;-58
2022/02/22 09:03:29;;;;;;;9.52;2.80;;;;;;;5.89;74.66;97628.59;5063690;28;20045;-58
2022/02/22 09:05:55;;;;;;;3.25;2.10;;;;;;;6.42;73.15;97636.97;5064747;28;20025;-58
2022/02/22 09:08:21;;;;;;;6.50;1.92;;;;;;;6.69;71.10;97635.09;5062594;28;20036;-58
2022/02/22 09:10:49;;;;;;;2.60;2.17;;;;;;;6.80;71.72;97647.50;5064274;28;20226;-57
2022/02/22 09:13:15;;;;;;;2.22;1.75;;;;;;;6.89;69.10;97666.00;5065215;28;20210;-57
2022/02/22 09:15:42;;;;;;;3.30;2.17;;;;;;;6.67;70.15;97666.00;5065231;28;20098;-58
2022/02/22 09:18:07;;;;;;;3.38;2.10;;;;;;;6.38;71.64;97677.38;5064694;28;20075;-58
2022/02/22 09:20:33;;;;;;;2.88;2.25;;;;;;;6.16;72.16;97690.19;5065202;28;20020;-58
2022/02/22 09:22:58;;;;;;;3.75;2.05;;;;;;;6.07;72.48;97686.22;5064822;28;20029;-58
2022/02/22 09:25:25;;;;;;;4.13;2.38;;;;;;;5.99;72.41;97685.66;5065257;28;20052;-58
2022/02/22 09:27:51;;;;;;;2.67;1.80;;;;;;;5.70;73.18;97684.88;5065144;28;20028;-59
2022/02/22 09:30:19;;;;;;;2.60;2.00;;;;;;;5.09;72.93;97634.72;5065129;28;20218;-58
2022/02/22 09:32:48;;;;;;;3.25;1.88;;;;;;;5.44;72.82;97683.22;5065198;28;20025;-58
2022/02/22 09:35:16;;;;;;;3.95;1.95;;;;;;;5.67;72.67;97706.41;5065145;28;20036;-59
2022/02/22 09:37:42;;;;;;;2.00;1.50;;;;;;;5.69;72.20;97681.50;5065246;28;20108;-58
2022/02/22 09:40:08;;;;;;;4.75;1.80;;;;;;;5.74;72.63;97691.59;5064947;28;20029;-58
2022/02/22 09:42:34;;;;;;;2.58;1.70;;;;;;;5.75;72.98;97671.91;5063803;28;20367;-58
2022/02/22 09:45:00;;;;;;;3.53;1.85;;;;;;;5.91;72.25;97678.16;5065076;28;20029;-57
2022/02/22 09:47:26;;;;;;;4.15;2.08;;;;;;;5.78;71.94;97676.94;5065163;28;20063;-58
2022/02/22 09:49:52;;;;;;;4.93;3.13;;;;;;;5.62;72.11;97677.44;5063511;28;20088;-58
2022/02/22 09:52:17;;;;;;;4.68;2.40;;;;;;;5.94;72.11;97678.06;5063185;28;20021;-58
2022/02/22 09:54:44;;;;;;;3.42;2.13;;;;;;;5.74;71.53;97658.22;5064619;28;20020;-58
2022/02/22 09:57:09;;;;;;;3.10;2.20;;;;;;;6.09;71.73;97684.44;5064805;28;20041;-58
2022/02/22 09:59:35;;;;;;;1.52;1.35;;;;;;;6.02;70.57;97700.97;5064668;28;20110;-58
2022/02/22 10:02:01;;;;;;;3.65;1.90;;;;;;;5.77;69.93;97704.34;5064755;28;20035;-57
2022/02/22 10:04:27;;;;;;;2.83;1.60;;;;;;;5.93;70.39;97701.22;5064005;28;20052;-57
2022/02/22 10:07:02;;;;;;;2.72;1.67;;;;;;;5.61;69.58;97709.16;5064187;28;20064;-58
2022/02/22 10:09:30;;;;;;;2.55;1.50;;;;;;;5.54;69.34;97699.97;5063125;28;20254;-58
2022/02/22 10:11:55;;;;;;;2.90;1.65;;;;;;;5.67;70.23;97701.25;5059758;28;20041;-58
2022/02/22 10:14:26;;;;;;;2.53;1.60;;;;;;;5.36;69.58;97653.50;5060299;28;20028;-58
2022/02/22 10:16:54;;;;;;;2.40;1.80;;;;;;;5.43;69.38;97655.84;5064567;28;20025;-57
2022/02/22 10:19:21;;;;;;;2.05;1.50;;;;;;;5.62;69.06;97697.16;5064075;28;20450;-58
2022/02/22 10:21:51;;;;;;;2.55;1.40;;;;;;;5.13;69.06;97641.44;5064400;28;20020;-57
2022/02/22 10:24:19;;;;;;;3.60;1.65;;;;;;;5.19;69.54;97645.53;5064179;28;20025;-58
2022/02/22 10:26:46;;;;;;;3.35;2.08;;;;;;;5.60;70.38;97710.06;5064283;28;20021;-57
2022/02/22 10:29:13;;;;;;;2.28;1.70;;;;;;;5.79;69.89;97696.59;5064067;28;20052;-58
2022/02/22 10:31:39;;;;;;;3.30;1.60;;;;;;;5.74;69.21;97690.78;5046406;28;20029;-58
2022/02/22 10:34:05;;;;;;;4.45;1.75;;;;;;;5.85;69.06;97691.25;5064249;28;20029;-58
2022/02/22 10:36:38;;;;;;;1.60;1.50;;;;;;;6.08;69.20;97690.44;5064149;28;20079;-57
2022/02/22 10:39:05;;;;;;;41.53;23.05;;;;;;;6.05;69.22;97664.88;5063787;28;20021;-57
2022/02/22 10:41:41;;;;;;;3.28;2.00;;;;;;;6.19;67.55;97692.66;5063270;28;20036;-58
2022/02/22 10:44:09;;;;;;;3.15;1.63;;;;;;;5.97;67.14;97613.78;5063521;28;20052;-57
2022/02/22 10:46:37;;;;;;;3.45;1.90;;;;;;;6.51;67.72;97675.19;5063097;28;20048;-58
2022/02/22 10:49:09;;;;;;;1.67;1.40;;;;;;;6.07;67.38;97623.69;5061783;28;20091;-58
2022/02/22 10:51:41;;;;;;;;;;;;;;;6.36;67.87;97682.59;5061747;28;20055;-58
2022/02/22 10:54:08;;;;;;;2.45;1.55;;;;;;;6.21;66.84;97676.28;5062882;28;19952;-57
2022/02/22 10:56:35;;;;;;;2.47;1.60;;;;;;;6.12;66.06;97688.63;5063249;28;20033;-60
2022/02/22 10:59:03;;;;;;;3.30;2.00;;;;;;;6.00;67.50;97695.88;5063307;28;20032;-58
2022/02/22 11:01:28;;;;;;;1.70;1.52;;;;;;;6.24;67.68;97679.63;5063241;28;20024;-59
2022/02/22 11:03:54;;;;;;;2.97;1.70;;;;;;;6.22;66.99;97683.06;5063135;28;20048;-60
2022/02/22 11:06:20;;;;;;;4.75;2.78;;;;;;;6.05;66.91;97683.69;5062285;28;20029;-60
2022/02/22 11:08:48;;;;;;;2.75;2.08;;;;;;;5.77;67.22;97635.00;5057991;28;20084;-58
2022/02/22 11:11:32;;;;;;;3.05;1.70;;;;;;;6.12;67.25;97688.63;5062505;28;20036;-59
2022/02/22 11:14:02;;;;;;;3.40;1.80;;;;;;;5.99;66.30;97691.63;5062474;28;20059;-59
2022/02/22 11:16:50;;;;;;;3.25;1.65;;;;;;;5.90;66.81;97671.38;5062517;28;20029;-58
2022/02/22 11:19:20;;;;;;;2.78;1.63;;;;;;;6.06;66.96;97671.69;5060568;28;20214;-59
2022/02/22 11:21:49;;;;;;;2.20;1.50;;;;;;;6.14;66.70;97682.53;5062950;28;20025;-58
2022/02/22 11:24:15;;;;;;;3.10;1.60;;;;;;;6.18;65.57;97666.09;5063122;28;20031;-59
2022/02/22 11:26:57;;;;;;;2.28;1.75;;;;;;;6.16;65.59;97669.63;5063083;28;20028;-58
2022/02/22 11:29:25;;;;;;;3.45;1.83;;;;;;;5.79;65.43;97611.84;5062950;28;20322;-58
2022/02/22 11:32:03;;;;;;;2.45;1.70;;;;;;;5.78;65.92;97620.44;5062917;28;20024;-59
2022/02/22 11:34:31;;;;;;;3.50;1.60;;;;;;;6.38;66.34;97672.25;5062578;28;20021;-59
2022/02/22 11:36:59;;;;;;;4.22;1.80;;;;;;;6.35;64.91;97669.78;5060489;28;20028;-59